sensor_id;sensor_type;location;lat;lon;timestamp;temperature;humidity
46590;DHT22;32313;48.722;9.362;2023-11-22T00:00:09;6.70;99.90
46590;DHT22;32313;48.722;9.362;2023-11-22T00:02:35;6.80;99.90
46590;DHT22;32313;48.722;9.362;2023-11-22T00:05:01;6.80;99.90
46590;DHT22;32313;48.722;9.362;2023-11-22T00:07:27;6.70;99.90
46590;DHT22;32313;48.722;9.362;2023-11-22T00:09:55;6.80;99.90
46590;DHT22;32313;48.722;9.362;2023-11-22T00:12:22;6.80;99.90
46590;DHT22;32313;48.722;9.362;2023-11-22T00:14:48;6.80;99.90
46590;DHT22;32313;48.722;9.362;2023-11-22T00:17:14;6.80;99.90
46590;DHT22;32313;48.722;9.362;2023-11-22T00:19:44;6.80;99.90
46590;DHT22;32313;48.722;9.362;2023-11-22T00:22:10;6.80;99.90
46590;DHT22;32313;48.722;9.362;2023-11-22T00:24:40;6.80;99.90
46590;DHT22;32313;48.722;9.362;2023-11-22T00:27:07;6.80;99.90
46590;DHT22;32313;48.722;9.362;2023-11-22T00:29:33;6.80;99.90
46590;DHT22;32313;48.722;9.362;2023-11-22T00:31:59;6.80;99.90
46590;DHT22;32313;48.722;9.362;2023-11-22T00:34:25;6.70;99.90
46590;DHT22;32313;48.722;9.362;2023-11-22T00:36:52;6.70;99.90
46590;DHT22;32313;48.722;9.362;2023-11-22T00:39:18;6.60;99.90
46590;DHT22;32313;48.722;9.362;2023-11-22T00:41:44;6.40;99.90
46590;DHT22;32313;48.722;9.362;2023-11-22T00:44:10;6.30;99.90
46590;DHT22;32313;48.722;9.362;2023-11-22T00:46:36;6.20;99.90
46590;DHT22;32313;48.722;9.362;2023-11-22T00:49:05;6.10;99.90
46590;DHT22;32313;48.722;9.362;2023-11-22T00:51:32;6.00;99.90
46590;DHT22;32313;48.722;9.362;2023-11-22T00:53:59;5.90;99.90
46590;DHT22;32313;48.722;9.362;2023-11-22T00:56:25;5.90;99.90
46590;DHT22;32313;48.722;9.362;2023-11-22T00:58:51;5.80;99.90
46590;DHT22;32313;48.722;9.362;2023-11-22T01:01:21;5.70;99.90
46590;DHT22;32313;48.722;9.362;2023-11-22T01:03:47;5.70;99.90
46590;DHT22;32313;48.722;9.362;2023-11-22T01:06:13;5.60;99.90
46590;DHT22;32313;48.722;9.362;2023-11-22T01:08:39;5.50;99.90
46590;DHT22;32313;48.722;9.362;2023-11-22T01:11:05;5.40;99.90
46590;DHT22;32313;48.722;9.362;2023-11-22T01:13:34;5.40;99.90
46590;DHT22;32313;48.722;9.362;2023-11-22T01:16:07;5.30;99.90
46590;DHT22;32313;48.722;9.362;2023-11-22T01:18:32;5.20;99.90
46590;DHT22;32313;48.722;9.362;2023-11-22T01:20:58;5.20;99.90
46590;DHT22;32313;48.722;9.362;2023-11-22T01:23:23;5.10;99.90
46590;DHT22;32313;48.722;9.362;2023-11-22T01:25:49;5.10;99.90
46590;DHT22;32313;48.722;9.362;2023-11-22T01:28:16;5.10;99.90
46590;DHT22;32313;48.722;9.362;2023-11-22T01:30:43;5.00;99.90
46590;DHT22;32313;48.722;9.362;2023-11-22T01:33:14;5.00;99.90
46590;DHT22;32313;48.722;9.362;2023-11-22T01:35:40;5.00;99.90
46590;DHT22;32313;48.722;9.362;2023-11-22T01:38:06;4.90;99.90
46590;DHT22;32313;48.722;9.362;2023-11-22T01:40:32;4.90;99.90
46590;DHT22;32313;48.722;9.362;2023-11-22T01:43:00;4.80;99.90
46590;DHT22;32313;48.722;9.362;2023-11-22T01:45:28;4.80;99.90
46590;DHT22;32313;48.722;9.362;2023-11-22T01:47:54;4.80;99.90
46590;DHT22;32313;48.722;9.362;2023-11-22T01:50:20;4.70;99.90
46590;DHT22;32313;48.722;9.362;2023-11-22T01:52:46;4.70;99.90
46590;DHT22;32313;48.722;9.362;2023-11-22T01:55:13;4.60;99.90
46590;DHT22;32313;48.722;9.362;2023-11-22T01:57:39;4.60;99.90
46590;DHT22;32313;48.722;9.362;2023-11-22T02:00:05;4.60;99.90
46590;DHT22;32313;48.722;9.362;2023-11-22T02:02:41;4.60;99.90
46590;DHT22;32313;48.722;9.362;2023-11-22T02:05:08;4.60;99.90
46590;DHT22;32313;48.722;9.362;2023-11-22T02:07:34;4.50;99.90
46590;DHT22;32313;48.722;9.362;2023-11-22T02:09:59;4.60;99.90
46590;DHT22;32313;48.722;9.362;2023-11-22T02:12:25;4.50;99.90
46590;DHT22;32313;48.722;9.362;2023-11-22T02:14:51;4.50;99.90
46590;DHT22;32313;48.722;9.362;2023-11-22T02:17:17;4.50;99.90
46590;DHT22;32313;48.722;9.362;2023-11-22T02:19:43;4.50;99.90
46590;DHT22;32313;48.722;9.362;2023-11-22T02:22:12;4.50;99.90
46590;DHT22;32313;48.722;9.362;2023-11-22T02:24:37;4.50;99.90
46590;DHT22;32313;48.722;9.362;2023-11-22T02:27:03;4.50;99.90
46590;DHT22;32313;48.722;9.362;2023-11-22T02:29:29;4.50;99.90
46590;DHT22;32313;48.722;9.362;2023-11-22T02:31:55;4.50;99.90
46590;DHT22;32313;48.722;9.362;2023-11-22T02:34:20;4.50;99.90
46590;DHT22;32313;48.722;9.362;2023-11-22T02:36:46;4.40;99.90
46590;DHT22;32313;48.722;9.362;2023-11-22T02:39:13;4.50;99.90
46590;DHT22;32313;48.722;9.362;2023-11-22T02:41:39;4.40;99.90
46590;DHT22;32313;48.722;9.362;2023-11-22T02:44:05;4.40;99.90
46590;DHT22;32313;48.722;9.362;2023-11-22T02:46:33;4.40;99.90
46590;DHT22;32313;48.722;9.362;2023-11-22T02:48:59;4.30;99.90
46590;DHT22;32313;48.722;9.362;2023-11-22T02:51:25;4.30;99.90
46590;DHT22;32313;48.722;9.362;2023-11-22T02:53:51;4.30;99.90
46590;DHT22;32313;48.722;9.362;2023-11-22T02:56:17;4.30;99.90
46590;DHT22;32313;48.722;9.362;2023-11-22T02:58:43;4.20;99.90
46590;DHT22;32313;48.722;9.362;2023-11-22T03:01:09;4.10;99.90
46590;DHT22;32313;48.722;9.362;2023-11-22T03:03:35;4.10;99.90
46590;DHT22;32313;48.722;9.362;2023-11-22T03:06:01;4.00;99.90
46590;DHT22;32313;48.722;9.362;2023-11-22T03:08:27;4.00;99.90
46590;DHT22;32313;48.722;9.362;2023-11-22T03:10:53;3.90;99.90
46590;DHT22;32313;48.722;9.362;2023-11-22T03:13:19;3.80;99.90
46590;DHT22;32313;48.722;9.362;2023-11-22T03:15:45;3.80;99.90
46590;DHT22;32313;48.722;9.362;2023-11-22T03:18:10;3.70;99.90
46590;DHT22;32313;48.722;9.362;2023-11-22T03:20:37;3.70;99.90
46590;DHT22;32313;48.722;9.362;2023-11-22T03:23:04;3.60;99.90
46590;DHT22;32313;48.722;9.362;2023-11-22T03:25:30;3.60;99.90
46590;DHT22;32313;48.722;9.362;2023-11-22T03:27:56;3.50;99.90
46590;DHT22;32313;48.722;9.362;2023-11-22T03:30:22;3.50;99.90
46590;DHT22;32313;48.722;9.362;2023-11-22T03:32:48;3.40;99.90
46590;DHT22;32313;48.722;9.362;2023-11-22T03:35:16;3.40;99.90
46590;DHT22;32313;48.722;9.362;2023-11-22T03:37:42;3.40;99.90
46590;DHT22;32313;48.722;9.362;2023-11-22T03:40:08;3.40;99.90
46590;DHT22;32313;48.722;9.362;2023-11-22T03:42:37;3.30;99.90
46590;DHT22;32313;48.722;9.362;2023-11-22T03:45:05;3.30;99.90
46590;DHT22;32313;48.722;9.362;2023-11-22T03:47:32;3.30;99.90
46590;DHT22;32313;48.722;9.362;2023-11-22T03:49:58;3.30;99.90
46590;DHT22;32313;48.722;9.362;2023-11-22T03:52:25;3.30;99.90
46590;DHT22;32313;48.722;9.362;2023-11-22T03:54:52;3.20;99.90
46590;DHT22;32313;48.722;9.362;2023-11-22T03:57:18;3.20;99.90
46590;DHT22;32313;48.722;9.362;2023-11-22T03:59:43;3.20;99.90
46590;DHT22;32313;48.722;9.362;2023-11-22T04:02:09;3.10;99.90
46590;DHT22;32313;48.722;9.362;2023-11-22T04:04:36;3.10;99.90
46590;DHT22;32313;48.722;9.362;2023-11-22T04:07:03;3.10;99.90
46590;DHT22;32313;48.722;9.362;2023-11-22T04:09:28;3.00;99.90
46590;DHT22;32313;48.722;9.362;2023-11-22T04:11:54;3.00;99.90
46590;DHT22;32313;48.722;9.362;2023-11-22T04:14:20;3.00;99.90
46590;DHT22;32313;48.722;9.362;2023-11-22T04:16:47;3.00;99.90
46590;DHT22;32313;48.722;9.362;2023-11-22T04:19:12;2.90;99.90
46590;DHT22;32313;48.722;9.362;2023-11-22T04:21:38;2.90;99.90
46590;DHT22;32313;48.722;9.362;2023-11-22T04:24:05;2.90;99.90
46590;DHT22;32313;48.722;9.362;2023-11-22T04:26:30;2.90;99.90
46590;DHT22;32313;48.722;9.362;2023-11-22T04:28:57;2.90;99.90
46590;DHT22;32313;48.722;9.362;2023-11-22T04:31:24;2.90;99.90
46590;DHT22;32313;48.722;9.362;2023-11-22T04:33:49;2.90;99.90
46590;DHT22;32313;48.722;9.362;2023-11-22T04:36:15;2.90;99.90
46590;DHT22;32313;48.722;9.362;2023-11-22T04:38:42;2.80;99.90
46590;DHT22;32313;48.722;9.362;2023-11-22T04:41:08;2.80;99.90
46590;DHT22;32313;48.722;9.362;2023-11-22T04:43:33;2.80;99.90
46590;DHT22;32313;48.722;9.362;2023-11-22T04:45:59;2.80;99.90
46590;DHT22;32313;48.722;9.362;2023-11-22T04:48:25;2.80;99.90
46590;DHT22;32313;48.722;9.362;2023-11-22T04:50:50;2.80;99.90
46590;DHT22;32313;48.722;9.362;2023-11-22T04:53:16;2.70;99.90
46590;DHT22;32313;48.722;9.362;2023-11-22T04:55:42;2.80;99.90
46590;DHT22;32313;48.722;9.362;2023-11-22T04:58:08;2.70;99.90
46590;DHT22;32313;48.722;9.362;2023-11-22T05:00:34;2.70;99.90
46590;DHT22;32313;48.722;9.362;2023-11-22T05:02:59;2.70;99.90
46590;DHT22;32313;48.722;9.362;2023-11-22T05:05:25;2.70;99.90
46590;DHT22;32313;48.722;9.362;2023-11-22T05:07:51;2.70;99.90
46590;DHT22;32313;48.722;9.362;2023-11-22T05:10:18;2.70;99.90
46590;DHT22;32313;48.722;9.362;2023-11-22T05:12:43;2.60;99.90
46590;DHT22;32313;48.722;9.362;2023-11-22T05:15:10;2.60;99.90
46590;DHT22;32313;48.722;9.362;2023-11-22T05:17:36;2.60;99.90
46590;DHT22;32313;48.722;9.362;2023-11-22T05:20:01;2.60;99.90
46590;DHT22;32313;48.722;9.362;2023-11-22T05:22:27;2.50;99.90
46590;DHT22;32313;48.722;9.362;2023-11-22T05:24:53;2.50;99.90
46590;DHT22;32313;48.722;9.362;2023-11-22T05:27:19;2.50;99.90
46590;DHT22;32313;48.722;9.362;2023-11-22T05:29:44;2.40;99.90
46590;DHT22;32313;48.722;9.362;2023-11-22T05:32:10;2.30;99.90
46590;DHT22;32313;48.722;9.362;2023-11-22T05:34:36;2.30;99.90
46590;DHT22;32313;48.722;9.362;2023-11-22T05:37:03;2.30;99.90
46590;DHT22;32313;48.722;9.362;2023-11-22T05:39:28;2.20;99.90
46590;DHT22;32313;48.722;9.362;2023-11-22T05:41:54;2.20;99.90
46590;DHT22;32313;48.722;9.362;2023-11-22T05:44:20;2.20;99.90
46590;DHT22;32313;48.722;9.362;2023-11-22T05:46:45;2.20;99.90
46590;DHT22;32313;48.722;9.362;2023-11-22T05:49:11;2.20;99.90
46590;DHT22;32313;48.722;9.362;2023-11-22T05:51:37;2.10;99.90
46590;DHT22;32313;48.722;9.362;2023-11-22T05:54:03;2.10;99.90
46590;DHT22;32313;48.722;9.362;2023-11-22T05:56:29;2.10;99.90
46590;DHT22;32313;48.722;9.362;2023-11-22T05:58:56;2.10;99.90
46590;DHT22;32313;48.722;9.362;2023-11-22T06:01:22;2.10;99.90
46590;DHT22;32313;48.722;9.362;2023-11-22T06:03:47;2.10;99.90
46590;DHT22;32313;48.722;9.362;2023-11-22T06:06:14;2.10;99.90
46590;DHT22;32313;48.722;9.362;2023-11-22T06:08:40;2.10;99.90
46590;DHT22;32313;48.722;9.362;2023-11-22T06:11:06;2.10;99.90
46590;DHT22;32313;48.722;9.362;2023-11-22T06:13:32;2.10;99.90
46590;DHT22;32313;48.722;9.362;2023-11-22T06:15:58;2.20;99.90
46590;DHT22;32313;48.722;9.362;2023-11-22T06:18:24;2.20;99.90
46590;DHT22;32313;48.722;9.362;2023-11-22T06:20:55;2.20;99.90
46590;DHT22;32313;48.722;9.362;2023-11-22T06:23:22;2.20;99.90
46590;DHT22;32313;48.722;9.362;2023-11-22T06:25:47;2.20;99.90
46590;DHT22;32313;48.722;9.362;2023-11-22T06:28:13;2.20;99.90
46590;DHT22;32313;48.722;9.362;2023-11-22T06:30:39;2.20;99.90
46590;DHT22;32313;48.722;9.362;2023-11-22T06:33:05;2.20;99.90
46590;DHT22;32313;48.722;9.362;2023-11-22T06:35:30;2.20;99.90
46590;DHT22;32313;48.722;9.362;2023-11-22T06:37:56;2.20;99.90
46590;DHT22;32313;48.722;9.362;2023-11-22T06:40:22;2.20;99.90
46590;DHT22;32313;48.722;9.362;2023-11-22T06:42:48;2.20;99.90
46590;DHT22;32313;48.722;9.362;2023-11-22T06:45:14;2.20;99.90
46590;DHT22;32313;48.722;9.362;2023-11-22T06:47:40;2.30;99.90
46590;DHT22;32313;48.722;9.362;2023-11-22T06:50:06;2.30;99.90
46590;DHT22;32313;48.722;9.362;2023-11-22T06:52:41;2.30;99.90
46590;DHT22;32313;48.722;9.362;2023-11-22T06:55:08;2.30;99.90
46590;DHT22;32313;48.722;9.362;2023-11-22T06:57:34;2.40;99.90
46590;DHT22;32313;48.722;9.362;2023-11-22T07:00:00;2.40;99.90
46590;DHT22;32313;48.722;9.362;2023-11-22T07:02:30;2.40;99.90
46590;DHT22;32313;48.722;9.362;2023-11-22T07:04:56;2.50;99.90
46590;DHT22;32313;48.722;9.362;2023-11-22T07:07:25;2.50;99.90
46590;DHT22;32313;48.722;9.362;2023-11-22T07:09:50;2.50;99.90
46590;DHT22;32313;48.722;9.362;2023-11-22T07:12:16;2.50;99.90
46590;DHT22;32313;48.722;9.362;2023-11-22T07:14:42;2.50;99.90
46590;DHT22;32313;48.722;9.362;2023-11-22T07:17:08;2.50;99.90
46590;DHT22;32313;48.722;9.362;2023-11-22T07:19:34;2.50;99.90
46590;DHT22;32313;48.722;9.362;2023-11-22T07:22:06;2.50;99.90
46590;DHT22;32313;48.722;9.362;2023-11-22T07:24:44;2.60;99.90
46590;DHT22;32313;48.722;9.362;2023-11-22T07:27:14;2.60;99.90
46590;DHT22;32313;48.722;9.362;2023-11-22T07:29:43;2.60;99.90
46590;DHT22;32313;48.722;9.362;2023-11-22T07:32:10;2.60;99.90
46590;DHT22;32313;48.722;9.362;2023-11-22T07:34:36;2.60;99.90
46590;DHT22;32313;48.722;9.362;2023-11-22T07:37:02;2.60;99.90
46590;DHT22;32313;48.722;9.362;2023-11-22T07:39:28;2.60;99.90
46590;DHT22;32313;48.722;9.362;2023-11-22T07:41:54;2.60;99.90
46590;DHT22;32313;48.722;9.362;2023-11-22T07:44:23;2.60;99.90
46590;DHT22;32313;48.722;9.362;2023-11-22T07:46:50;2.60;99.90
46590;DHT22;32313;48.722;9.362;2023-11-22T07:49:18;2.60;99.90
46590;DHT22;32313;48.722;9.362;2023-11-22T07:51:44;2.60;99.90
46590;DHT22;32313;48.722;9.362;2023-11-22T07:54:13;2.60;99.90
46590;DHT22;32313;48.722;9.362;2023-11-22T07:56:43;2.60;99.90
46590;DHT22;32313;48.722;9.362;2023-11-22T07:59:10;2.70;99.90
46590;DHT22;32313;48.722;9.362;2023-11-22T08:01:41;2.70;99.90
46590;DHT22;32313;48.722;9.362;2023-11-22T08:04:08;2.70;99.90
46590;DHT22;32313;48.722;9.362;2023-11-22T08:06:35;2.70;99.90
46590;DHT22;32313;48.722;9.362;2023-11-22T08:09:01;2.70;99.90
46590;DHT22;32313;48.722;9.362;2023-11-22T08:11:30;2.60;99.90
46590;DHT22;32313;48.722;9.362;2023-11-22T08:13:57;2.60;99.90
46590;DHT22;32313;48.722;9.362;2023-11-22T08:16:26;2.60;99.90
46590;DHT22;32313;48.722;9.362;2023-11-22T08:18:52;2.70;99.90
46590;DHT22;32313;48.722;9.362;2023-11-22T08:21:18;2.70;99.90
46590;DHT22;32313;48.722;9.362;2023-11-22T08:23:46;2.70;99.90
46590;DHT22;32313;48.722;9.362;2023-11-22T08:26:12;2.70;99.90
46590;DHT22;32313;48.722;9.362;2023-11-22T08:28:38;2.70;99.90
46590;DHT22;32313;48.722;9.362;2023-11-22T08:31:04;2.70;99.90
46590;DHT22;32313;48.722;9.362;2023-11-22T08:33:31;2.70;99.90
46590;DHT22;32313;48.722;9.362;2023-11-22T08:35:57;2.70;99.90
46590;DHT22;32313;48.722;9.362;2023-11-22T08:38:26;2.70;99.90
46590;DHT22;32313;48.722;9.362;2023-11-22T08:40:52;2.70;99.90
46590;DHT22;32313;48.722;9.362;2023-11-22T08:43:18;2.80;99.90
46590;DHT22;32313;48.722;9.362;2023-11-22T08:45:49;2.80;99.90
46590;DHT22;32313;48.722;9.362;2023-11-22T08:48:14;2.90;99.90
46590;DHT22;32313;48.722;9.362;2023-11-22T08:50:41;2.90;99.90
46590;DHT22;32313;48.722;9.362;2023-11-22T08:53:06;2.90;99.90
46590;DHT22;32313;48.722;9.362;2023-11-22T08:55:33;3.00;99.90
46590;DHT22;32313;48.722;9.362;2023-11-22T08:57:59;3.00;99.90
46590;DHT22;32313;48.722;9.362;2023-11-22T09:00:25;3.10;99.90
46590;DHT22;32313;48.722;9.362;2023-11-22T09:02:54;3.10;99.90
46590;DHT22;32313;48.722;9.362;2023-11-22T09:05:22;3.10;99.90
46590;DHT22;32313;48.722;9.362;2023-11-22T09:07:48;3.20;99.90
46590;DHT22;32313;48.722;9.362;2023-11-22T09:10:14;3.20;99.90
46590;DHT22;32313;48.722;9.362;2023-11-22T09:12:42;3.20;99.90
46590;DHT22;32313;48.722;9.362;2023-11-22T09:15:08;3.20;99.90
46590;DHT22;32313;48.722;9.362;2023-11-22T09:17:38;3.10;99.90
46590;DHT22;32313;48.722;9.362;2023-11-22T09:20:09;3.10;99.90
46590;DHT22;32313;48.722;9.362;2023-11-22T09:22:41;3.10;99.90
46590;DHT22;32313;48.722;9.362;2023-11-22T09:25:11;3.10;99.90
46590;DHT22;32313;48.722;9.362;2023-11-22T09:27:37;3.10;99.90
46590;DHT22;32313;48.722;9.362;2023-11-22T09:30:04;3.10;99.90
46590;DHT22;32313;48.722;9.362;2023-11-22T09:32:30;3.10;99.90
46590;DHT22;32313;48.722;9.362;2023-11-22T09:34:56;3.10;99.90
46590;DHT22;32313;48.722;9.362;2023-11-22T09:37:23;3.10;99.90
46590;DHT22;32313;48.722;9.362;2023-11-22T09:39:51;3.10;99.90
46590;DHT22;32313;48.722;9.362;2023-11-22T09:42:16;3.20;99.90
46590;DHT22;32313;48.722;9.362;2023-11-22T09:44:42;3.20;99.90
46590;DHT22;32313;48.722;9.362;2023-11-22T09:47:09;3.20;99.90
46590;DHT22;32313;48.722;9.362;2023-11-22T09:49:39;3.20;99.90
46590;DHT22;32313;48.722;9.362;2023-11-22T09:52:09;3.20;99.90
46590;DHT22;32313;48.722;9.362;2023-11-22T09:54:38;3.30;99.90
46590;DHT22;32313;48.722;9.362;2023-11-22T09:57:06;3.30;99.90
46590;DHT22;32313;48.722;9.362;2023-11-22T09:59:35;3.30;99.90
46590;DHT22;32313;48.722;9.362;2023-11-22T10:02:01;3.30;99.90
46590;DHT22;32313;48.722;9.362;2023-11-22T10:04:30;3.40;99.90
46590;DHT22;32313;48.722;9.362;2023-11-22T10:06:57;3.40;99.90
46590;DHT22;32313;48.722;9.362;2023-11-22T10:09:25;3.50;99.90
46590;DHT22;32313;48.722;9.362;2023-11-22T10:11:52;3.50;99.90
46590;DHT22;32313;48.722;9.362;2023-11-22T10:14:24;3.50;99.90
46590;DHT22;32313;48.722;9.362;2023-11-22T10:17:01;3.50;99.90
46590;DHT22;32313;48.722;9.362;2023-11-22T10:19:28;3.40;99.90
46590;DHT22;32313;48.722;9.362;2023-11-22T10:22:08;3.40;99.90
46590;DHT22;32313;48.722;9.362;2023-11-22T10:24:34;3.50;99.90
46590;DHT22;32313;48.722;9.362;2023-11-22T10:27:01;3.50;99.90
46590;DHT22;32313;48.722;9.362;2023-11-22T10:29:27;3.50;99.90
46590;DHT22;32313;48.722;9.362;2023-11-22T10:31:52;3.60;99.90
46590;DHT22;32313;48.722;9.362;2023-11-22T10:34:22;3.60;99.90
46590;DHT22;32313;48.722;9.362;2023-11-22T10:36:49;3.60;99.90
46590;DHT22;32313;48.722;9.362;2023-11-22T10:39:20;3.60;99.90
46590;DHT22;32313;48.722;9.362;2023-11-22T10:41:46;3.60;99.90
46590;DHT22;32313;48.722;9.362;2023-11-22T10:44:11;3.60;99.90
46590;DHT22;32313;48.722;9.362;2023-11-22T10:46:39;3.60;99.90
46590;DHT22;32313;48.722;9.362;2023-11-22T10:49:05;3.50;99.90
46590;DHT22;32313;48.722;9.362;2023-11-22T10:51:32;3.50;99.90
46590;DHT22;32313;48.722;9.362;2023-11-22T10:54:00;3.50;99.90
46590;DHT22;32313;48.722;9.362;2023-11-22T10:56:36;3.40;99.90
46590;DHT22;32313;48.722;9.362;2023-11-22T10:59:15;3.40;99.90
46590;DHT22;32313;48.722;9.362;2023-11-22T11:01:45;3.40;99.90
46590;DHT22;32313;48.722;9.362;2023-11-22T11:04:34;3.40;99.90
46590;DHT22;32313;48.722;9.362;2023-11-22T11:07:09;3.40;99.90
46590;DHT22;32313;48.722;9.362;2023-11-22T11:09:38;3.40;99.90
46590;DHT22;32313;48.722;9.362;2023-11-22T11:12:05;3.40;99.90
46590;DHT22;32313;48.722;9.362;2023-11-22T11:14:32;3.40;99.90
46590;DHT22;32313;48.722;9.362;2023-11-22T11:16:57;3.40;99.90
46590;DHT22;32313;48.722;9.362;2023-11-22T11:19:24;3.40;99.90
46590;DHT22;32313;48.722;9.362;2023-11-22T11:21:50;3.40;99.90
46590;DHT22;32313;48.722;9.362;2023-11-22T11:24:17;3.30;99.90
46590;DHT22;32313;48.722;9.362;2023-11-22T11:26:50;3.30;99.90
46590;DHT22;32313;48.722;9.362;2023-11-22T11:29:30;3.30;99.90
46590;DHT22;32313;48.722;9.362;2023-11-22T11:31:56;3.30;99.90
46590;DHT22;32313;48.722;9.362;2023-11-22T11:34:23;3.30;99.90
46590;DHT22;32313;48.722;9.362;2023-11-22T11:36:53;3.30;99.90
46590;DHT22;32313;48.722;9.362;2023-11-22T11:39:26;3.20;99.90
46590;DHT22;32313;48.722;9.362;2023-11-22T11:42:12;3.20;99.90
46590;DHT22;32313;48.722;9.362;2023-11-22T11:47:22;3.30;99.90
46590;DHT22;32313;48.722;9.362;2023-11-22T11:49:49;3.30;99.90
46590;DHT22;32313;48.722;9.362;2023-11-22T11:52:18;3.30;99.90
46590;DHT22;32313;48.722;9.362;2023-11-22T11:54:44;3.30;99.90
46590;DHT22;32313;48.722;9.362;2023-11-22T11:57:10;3.30;99.90
46590;DHT22;32313;48.722;9.362;2023-11-22T11:59:36;3.30;99.90
46590;DHT22;32313;48.722;9.362;2023-11-22T12:02:01;3.30;99.90
46590;DHT22;32313;48.722;9.362;2023-11-22T12:04:31;3.30;99.90
46590;DHT22;32313;48.722;9.362;2023-11-22T12:06:57;3.30;99.90
46590;DHT22;32313;48.722;9.362;2023-11-22T12:09:27;3.30;99.90
46590;DHT22;32313;48.722;9.362;2023-11-22T12:11:55;3.30;99.90
46590;DHT22;32313;48.722;9.362;2023-11-22T12:14:22;3.30;99.90
46590;DHT22;32313;48.722;9.362;2023-11-22T12:16:51;3.30;99.90
46590;DHT22;32313;48.722;9.362;2023-11-22T12:19:28;3.30;99.90
46590;DHT22;32313;48.722;9.362;2023-11-22T12:21:57;3.30;99.90
46590;DHT22;32313;48.722;9.362;2023-11-22T12:24:23;3.30;99.90
46590;DHT22;32313;48.722;9.362;2023-11-22T12:26:51;3.30;99.90
46590;DHT22;32313;48.722;9.362;2023-11-22T12:29:17;3.30;99.90
46590;DHT22;32313;48.722;9.362;2023-11-22T12:31:49;3.30;99.90
46590;DHT22;32313;48.722;9.362;2023-11-22T12:34:24;3.30;99.90
46590;DHT22;32313;48.722;9.362;2023-11-22T12:36:51;3.30;99.90
46590;DHT22;32313;48.722;9.362;2023-11-22T12:39:20;3.30;99.90
46590;DHT22;32313;48.722;9.362;2023-11-22T12:41:50;3.30;99.90
46590;DHT22;32313;48.722;9.362;2023-11-22T12:44:17;3.30;99.90
46590;DHT22;32313;48.722;9.362;2023-11-22T12:46:53;3.30;99.90
46590;DHT22;32313;48.722;9.362;2023-11-22T12:49:28;3.30;99.90
46590;DHT22;32313;48.722;9.362;2023-11-22T12:51:55;3.30;99.90
46590;DHT22;32313;48.722;9.362;2023-11-22T12:54:22;3.20;99.90
46590;DHT22;32313;48.722;9.362;2023-11-22T12:56:52;3.20;99.90
46590;DHT22;32313;48.722;9.362;2023-11-22T12:59:24;3.20;99.90
46590;DHT22;32313;48.722;9.362;2023-11-22T13:01:50;3.20;99.90
46590;DHT22;32313;48.722;9.362;2023-11-22T13:04:18;3.20;99.90
46590;DHT22;32313;48.722;9.362;2023-11-22T13:06:44;3.20;99.90
46590;DHT22;32313;48.722;9.362;2023-11-22T13:09:10;3.20;99.90
46590;DHT22;32313;48.722;9.362;2023-11-22T13:11:42;3.20;99.90
46590;DHT22;32313;48.722;9.362;2023-11-22T13:14:11;3.20;99.90
46590;DHT22;32313;48.722;9.362;2023-11-22T13:16:41;3.20;99.90
46590;DHT22;32313;48.722;9.362;2023-11-22T13:19:14;3.10;99.90
46590;DHT22;32313;48.722;9.362;2023-11-22T13:21:40;3.10;99.90
46590;DHT22;32313;48.722;9.362;2023-11-22T13:24:06;3.10;99.90
46590;DHT22;32313;48.722;9.362;2023-11-22T13:26:32;3.10;99.90
46590;DHT22;32313;48.722;9.362;2023-11-22T13:28:59;3.10;99.90
46590;DHT22;32313;48.722;9.362;2023-11-22T13:31:26;3.10;99.90
46590;DHT22;32313;48.722;9.362;2023-11-22T13:33:51;3.10;99.90
46590;DHT22;32313;48.722;9.362;2023-11-22T13:36:17;3.10;99.90
46590;DHT22;32313;48.722;9.362;2023-11-22T13:38:43;3.10;99.90
46590;DHT22;32313;48.722;9.362;2023-11-22T13:41:08;3.10;99.90
46590;DHT22;32313;48.722;9.362;2023-11-22T13:43:34;3.10;99.90
46590;DHT22;32313;48.722;9.362;2023-11-22T13:46:01;3.00;99.90
46590;DHT22;32313;48.722;9.362;2023-11-22T13:48:26;3.00;99.90
46590;DHT22;32313;48.722;9.362;2023-11-22T13:50:52;3.00;99.90
46590;DHT22;32313;48.722;9.362;2023-11-22T13:53:18;3.00;99.90
46590;DHT22;32313;48.722;9.362;2023-11-22T13:55:48;3.00;99.90
46590;DHT22;32313;48.722;9.362;2023-11-22T13:58:15;2.90;99.90
46590;DHT22;32313;48.722;9.362;2023-11-22T14:00:41;2.90;99.90
46590;DHT22;32313;48.722;9.362;2023-11-22T14:03:22;2.90;99.90
46590;DHT22;32313;48.722;9.362;2023-11-22T14:05:48;2.80;99.90
46590;DHT22;32313;48.722;9.362;2023-11-22T14:08:14;2.90;99.90
46590;DHT22;32313;48.722;9.362;2023-11-22T14:10:40;2.80;99.90
46590;DHT22;32313;48.722;9.362;2023-11-22T14:13:06;2.80;99.90
46590;DHT22;32313;48.722;9.362;2023-11-22T14:15:34;2.80;99.90
46590;DHT22;32313;48.722;9.362;2023-11-22T14:18:00;2.70;99.90
46590;DHT22;32313;48.722;9.362;2023-11-22T14:20:26;2.70;99.90
46590;DHT22;32313;48.722;9.362;2023-11-22T14:22:52;2.70;99.90
46590;DHT22;32313;48.722;9.362;2023-11-22T14:25:18;2.70;99.90
46590;DHT22;32313;48.722;9.362;2023-11-22T14:27:45;2.70;99.90
46590;DHT22;32313;48.722;9.362;2023-11-22T14:30:12;2.60;99.90
46590;DHT22;32313;48.722;9.362;2023-11-22T14:32:40;2.60;99.90
46590;DHT22;32313;48.722;9.362;2023-11-22T14:35:06;2.60;99.90
46590;DHT22;32313;48.722;9.362;2023-11-22T14:37:36;2.60;99.90
46590;DHT22;32313;48.722;9.362;2023-11-22T14:40:03;2.60;99.90
46590;DHT22;32313;48.722;9.362;2023-11-22T14:42:45;2.60;99.90
46590;DHT22;32313;48.722;9.362;2023-11-22T14:45:13;2.60;99.90
46590;DHT22;32313;48.722;9.362;2023-11-22T14:47:39;2.50;99.90
46590;DHT22;32313;48.722;9.362;2023-11-22T14:50:07;2.50;99.90
46590;DHT22;32313;48.722;9.362;2023-11-22T14:52:35;2.50;99.90
46590;DHT22;32313;48.722;9.362;2023-11-22T14:55:01;2.50;99.90
46590;DHT22;32313;48.722;9.362;2023-11-22T14:57:27;2.50;99.90
46590;DHT22;32313;48.722;9.362;2023-11-22T14:59:53;2.50;99.90
46590;DHT22;32313;48.722;9.362;2023-11-22T15:02:19;2.40;99.90
46590;DHT22;32313;48.722;9.362;2023-11-22T15:04:44;2.40;99.90
46590;DHT22;32313;48.722;9.362;2023-11-22T15:07:11;2.40;99.90
46590;DHT22;32313;48.722;9.362;2023-11-22T15:09:37;2.40;99.90
46590;DHT22;32313;48.722;9.362;2023-11-22T15:12:03;2.40;99.90
46590;DHT22;32313;48.722;9.362;2023-11-22T15:14:33;2.30;99.90
46590;DHT22;32313;48.722;9.362;2023-11-22T15:16:59;2.30;99.90
46590;DHT22;32313;48.722;9.362;2023-11-22T15:19:34;2.30;99.90
46590;DHT22;32313;48.722;9.362;2023-11-22T15:22:03;2.30;99.90
46590;DHT22;32313;48.722;9.362;2023-11-22T15:24:29;2.30;99.90
46590;DHT22;32313;48.722;9.362;2023-11-22T15:26:56;2.20;99.90
46590;DHT22;32313;48.722;9.362;2023-11-22T15:29:22;2.20;99.90
46590;DHT22;32313;48.722;9.362;2023-11-22T15:31:48;2.20;99.90
46590;DHT22;32313;48.722;9.362;2023-11-22T15:34:13;2.20;99.90
46590;DHT22;32313;48.722;9.362;2023-11-22T15:36:40;2.20;99.90
46590;DHT22;32313;48.722;9.362;2023-11-22T15:39:05;2.20;99.90
46590;DHT22;32313;48.722;9.362;2023-11-22T15:41:37;2.20;99.90
46590;DHT22;32313;48.722;9.362;2023-11-22T15:44:02;2.20;99.90
46590;DHT22;32313;48.722;9.362;2023-11-22T15:46:29;2.10;99.90